createdAt,value
2019-01-24T00:00:34.737Z,-4.00
2019-01-24T00:03:03.371Z,-3.90
2019-01-24T00:05:31.844Z,-3.90
2019-01-24T00:08:00.309Z,-3.90
2019-01-24T00:10:28.843Z,-3.90
2019-01-24T00:12:57.304Z,-3.90
2019-01-24T00:15:25.773Z,-3.90
2019-01-24T00:17:54.240Z,-3.90
2019-01-24T00:20:22.710Z,-3.90
2019-01-24T00:22:51.188Z,-3.90
2019-01-24T00:25:19.716Z,-3.90
2019-01-24T00:27:48.193Z,-4.00
2019-01-24T00:30:17.087Z,-3.90
2019-01-24T00:32:45.642Z,-4.00
2019-01-24T00:35:14.252Z,-3.90
2019-01-24T00:37:42.788Z,-3.90
2019-01-24T00:40:19.131Z,-3.90
2019-01-24T00:42:47.713Z,-3.90
2019-01-24T00:45:16.421Z,-3.90
2019-01-24T00:47:44.870Z,-3.90
2019-01-24T00:50:15.063Z,-3.80
2019-01-24T00:52:43.807Z,-3.80
2019-01-24T00:55:14.317Z,-3.80
2019-01-24T00:57:42.915Z,-3.80
2019-01-24T01:00:20.435Z,-3.80
2019-01-24T01:02:49.326Z,-3.80
2019-01-24T01:05:18.064Z,-3.80
2019-01-24T01:07:46.785Z,-3.90
2019-01-24T01:10:16.191Z,-3.90
2019-01-24T01:12:44.922Z,-3.90
2019-01-24T01:15:19.160Z,-3.90
2019-01-24T01:17:48.358Z,-3.90
2019-01-24T01:20:21.770Z,-3.80
2019-01-24T01:22:50.746Z,-3.80
2019-01-24T01:25:19.416Z,-3.80
2019-01-24T01:27:48.316Z,-3.80
2019-01-24T01:30:22.455Z,-3.80
2019-01-24T01:32:51.468Z,-3.70
2019-01-24T01:35:19.933Z,-3.70
2019-01-24T01:37:48.492Z,-3.70
2019-01-24T01:40:19.004Z,-3.80
2019-01-24T01:42:48.138Z,-3.80
2019-01-24T01:45:18.839Z,-3.80
2019-01-24T01:47:47.425Z,-3.80
2019-01-24T01:50:21.218Z,-3.80
2019-01-24T01:52:49.815Z,-3.80
2019-01-24T01:55:18.562Z,-3.80
2019-01-24T01:57:47.264Z,-3.70
2019-01-24T02:00:18.376Z,-3.70
2019-01-24T02:02:46.843Z,-3.70
2019-01-24T02:05:15.773Z,-3.70
2019-01-24T02:07:44.406Z,-3.70
2019-01-24T02:10:18.318Z,-3.70
2019-01-24T02:12:47.154Z,-3.70
2019-01-24T02:15:17.031Z,-3.70
2019-01-24T02:17:45.835Z,-3.70
2019-01-24T02:20:17.362Z,-3.70
2019-01-24T02:22:46.547Z,-3.70
2019-01-24T02:25:15.291Z,-3.70
2019-01-24T02:27:44.069Z,-3.70
2019-01-24T02:30:24.235Z,-3.70
2019-01-24T02:32:52.719Z,-3.70
2019-01-24T02:35:21.260Z,-3.70
2019-01-24T02:37:49.985Z,-3.70
2019-01-24T02:40:19.253Z,-3.70
2019-01-24T02:42:47.824Z,-3.70
2019-01-24T02:45:18.729Z,-3.60
2019-01-24T02:47:47.337Z,-3.60
2019-01-24T02:50:18.235Z,-3.60
2019-01-24T02:52:47.028Z,-3.70
2019-01-24T02:55:16.546Z,-3.70
2019-01-24T02:57:45.295Z,-3.70
2019-01-24T03:00:22.280Z,-3.70
2019-01-24T03:02:51.287Z,-3.70
2019-01-24T03:05:22.052Z,-3.70
2019-01-24T03:07:51.271Z,-3.70
2019-01-24T03:10:20.374Z,-3.70
2019-01-24T03:12:49.572Z,-3.70
2019-01-24T03:15:19.890Z,-3.70
2019-01-24T03:17:48.585Z,-3.70
2019-01-24T03:20:18.196Z,-3.60
2019-01-24T03:22:46.962Z,-3.60
2019-01-24T03:25:17.077Z,-3.60
2019-01-24T03:27:45.751Z,-3.70
2019-01-24T03:30:19.353Z,-3.70
2019-01-24T03:32:48.084Z,-3.70
2019-01-24T03:35:19.469Z,-3.80
2019-01-24T03:37:48.069Z,-3.70
2019-01-24T03:40:16.777Z,-3.80
2019-01-24T03:42:45.322Z,-3.70
2019-01-24T03:45:15.716Z,-3.70
2019-01-24T03:47:44.509Z,-3.80
2019-01-24T03:50:15.235Z,-3.70
2019-01-24T03:52:43.974Z,-3.70
2019-01-24T03:55:14.357Z,-3.70
2019-01-24T03:57:42.953Z,-3.70
2019-01-24T04:00:14.436Z,-3.60
2019-01-24T04:02:43.238Z,-3.60
2019-01-24T04:05:12.259Z,-3.70
2019-01-24T04:07:40.914Z,-3.70
2019-01-24T04:10:12.704Z,-3.70
2019-01-24T04:12:41.394Z,-3.70
2019-01-24T04:15:12.768Z,-3.70
2019-01-24T04:17:41.376Z,-3.60
2019-01-24T04:20:11.054Z,-3.70
2019-01-24T04:22:39.525Z,-3.80
2019-01-24T04:25:08.835Z,-3.80
2019-01-24T04:27:37.323Z,-3.70
2019-01-24T04:30:17.871Z,-3.70
2019-01-24T04:32:46.430Z,-3.70
2019-01-24T04:35:20.049Z,-3.80
2019-01-24T04:37:46.037Z,-3.70
2019-01-24T04:40:17.069Z,-3.80
2019-01-24T04:42:45.603Z,-3.70
2019-01-24T04:45:15.707Z,-3.80
2019-01-24T04:47:44.644Z,-3.80
2019-01-24T04:50:15.344Z,-3.80
2019-01-24T04:52:43.903Z,-3.80
2019-01-24T04:55:14.882Z,-3.80
2019-01-24T04:57:43.366Z,-3.80
2019-01-24T05:00:26.465Z,-3.80
2019-01-24T05:02:55.197Z,-3.80
2019-01-24T05:05:28.005Z,-3.70
2019-01-24T05:07:53.943Z,-3.80
2019-01-24T05:10:23.658Z,-3.80
2019-01-24T05:12:52.100Z,-3.80
2019-01-24T05:15:20.645Z,-3.80
2019-01-24T05:17:49.196Z,-3.80
2019-01-24T05:20:17.728Z,-3.70
2019-01-24T05:22:46.265Z,-3.70
2019-01-24T05:25:16.664Z,-3.80
2019-01-24T05:27:45.185Z,-3.80
2019-01-24T05:30:17.011Z,-3.80
2019-01-24T05:32:45.472Z,-3.80
2019-01-24T05:35:14.323Z,-3.80
2019-01-24T05:37:42.886Z,-3.80
2019-01-24T05:40:11.512Z,-3.80
2019-01-24T05:42:40.085Z,-3.70
2019-01-24T05:45:13.570Z,-3.70
2019-01-24T05:47:42.169Z,-3.70
2019-01-24T05:50:12.092Z,-3.70
2019-01-24T05:52:40.685Z,-3.70
2019-01-24T05:55:11.166Z,-3.70
2019-01-24T05:57:39.694Z,-3.70
2019-01-24T06:00:30.044Z,-3.70
2019-01-24T06:02:58.836Z,-3.70
2019-01-24T06:05:27.321Z,-3.70
2019-01-24T06:07:55.797Z,-3.70
2019-01-24T06:10:24.258Z,-3.80
2019-01-24T06:12:52.737Z,-3.80
2019-01-24T06:15:21.318Z,-3.70
2019-01-24T06:17:49.787Z,-3.70
2019-01-24T06:20:18.337Z,-3.80
2019-01-24T06:22:46.839Z,-3.80
2019-01-24T06:25:15.846Z,-3.80
2019-01-24T06:27:44.452Z,-3.70
2019-01-24T06:30:21.281Z,-3.70
2019-01-24T06:32:49.883Z,-3.70
2019-01-24T06:35:18.359Z,-3.60
2019-01-24T06:37:47.222Z,-3.70
2019-01-24T06:40:16.567Z,-3.70
2019-01-24T06:42:45.107Z,-3.70
2019-01-24T06:45:19.366Z,-3.70
2019-01-24T06:47:47.978Z,-3.70
2019-01-24T06:50:18.101Z,-3.80
2019-01-24T06:52:46.708Z,-3.70
2019-01-24T06:55:24.049Z,-3.70
2019-01-24T06:57:52.572Z,-3.80
2019-01-24T07:00:21.580Z,-3.80
2019-01-24T07:02:50.154Z,-3.80
2019-01-24T07:05:18.768Z,-3.90
2019-01-24T07:07:47.455Z,-3.80
2019-01-24T07:10:18.013Z,-3.80
2019-01-24T07:12:46.498Z,-3.70
2019-01-24T07:15:17.318Z,-3.70
2019-01-24T07:17:45.882Z,-3.80
2019-01-24T07:20:16.627Z,-3.70
2019-01-24T07:22:45.232Z,-3.70
2019-01-24T07:25:22.381Z,-3.70
2019-01-24T07:27:50.850Z,-3.80
2019-01-24T07:30:20.665Z,-3.70
2019-01-24T07:32:49.551Z,-3.70
2019-01-24T07:35:19.276Z,-3.70
2019-01-24T07:37:47.758Z,-3.70
2019-01-24T07:40:18.537Z,-3.70
2019-01-24T07:42:47.194Z,-3.60
2019-01-24T07:45:18.738Z,-3.60
2019-01-24T07:47:47.276Z,-3.50
2019-01-24T07:50:16.100Z,-3.60
2019-01-24T07:52:44.601Z,-3.50
2019-01-24T07:55:13.572Z,-3.50
2019-01-24T07:57:42.694Z,-3.50
2019-01-24T08:00:20.163Z,-3.40
2019-01-24T08:02:48.782Z,-3.40
2019-01-24T08:05:17.502Z,-3.30
2019-01-24T08:07:46.221Z,-3.30
2019-01-24T08:10:19.752Z,-3.20
2019-01-24T08:12:49.142Z,-3.20
2019-01-24T08:15:21.683Z,-3.20
2019-01-24T08:17:50.429Z,-3.20
2019-01-24T08:20:24.084Z,-3.20
2019-01-24T08:22:52.616Z,-3.20
2019-01-24T08:25:21.301Z,-3.10
2019-01-24T08:27:50.183Z,-3.00
2019-01-24T08:30:26.798Z,-2.90
2019-01-24T08:32:55.334Z,-2.90
2019-01-24T08:35:23.975Z,-2.80
2019-01-24T08:37:52.449Z,-2.90
2019-01-24T08:40:22.453Z,-2.80
2019-01-24T08:42:51.095Z,-2.80
2019-01-24T08:45:19.913Z,-2.90
2019-01-24T08:47:48.383Z,-2.90
2019-01-24T08:50:19.920Z,-3.00
2019-01-24T08:52:48.459Z,-3.00
2019-01-24T08:55:28.762Z,-3.00
2019-01-24T08:57:57.229Z,-2.90
2019-01-24T09:00:25.773Z,-2.80
2019-01-24T09:02:54.668Z,-2.80
2019-01-24T09:05:23.462Z,-2.70
2019-01-24T09:07:51.946Z,-2.80
2019-01-24T09:10:26.135Z,-2.80
2019-01-24T09:12:54.618Z,-2.70
2019-01-24T09:15:23.333Z,-2.80
2019-01-24T09:17:51.864Z,-2.70
2019-01-24T09:20:21.192Z,-2.70
2019-01-24T09:22:55.195Z,-2.70
2019-01-24T09:25:20.190Z,-2.70
2019-01-24T09:27:48.728Z,-2.50
2019-01-24T09:30:23.198Z,-2.50
2019-01-24T09:32:51.672Z,-2.50
2019-01-24T09:35:20.286Z,-2.40
2019-01-24T09:37:48.833Z,-2.40
2019-01-24T09:40:19.281Z,-2.30
2019-01-24T09:42:48.724Z,-2.20
2019-01-24T09:45:22.542Z,-1.90
2019-01-24T09:47:51.946Z,-1.80
2019-01-24T09:50:22.592Z,-1.90
2019-01-24T09:52:51.189Z,-1.70
2019-01-24T09:55:19.676Z,-1.70
2019-01-24T09:57:48.463Z,-1.60
2019-01-24T10:00:28.773Z,-1.40
2019-01-24T10:02:57.383Z,-1.30
2019-01-24T10:05:25.896Z,-1.00
2019-01-24T10:07:54.625Z,-1.10
2019-01-24T10:10:27.536Z,-1.00
2019-01-24T10:12:57.320Z,-0.90
2019-01-24T10:15:25.927Z,-0.90
2019-01-24T10:17:54.687Z,-0.80
2019-01-24T10:20:25.175Z,-0.70
2019-01-24T10:22:53.721Z,-0.80
2019-01-24T10:25:27.716Z,-0.70
2019-01-24T10:27:56.357Z,-0.60
2019-01-24T10:30:25.978Z,-0.90
2019-01-24T10:32:54.648Z,-1.00
2019-01-24T10:35:23.514Z,-0.80
2019-01-24T10:37:51.995Z,-0.90
2019-01-24T10:40:27.230Z,-0.80
2019-01-24T10:42:56.126Z,-0.90
2019-01-24T10:45:24.659Z,-1.10
2019-01-24T10:47:54.356Z,-1.00
2019-01-24T10:50:27.562Z,-1.00
2019-01-24T10:52:56.099Z,-0.70
2019-01-24T10:55:26.698Z,-0.80
2019-01-24T10:57:57.019Z,-0.70
2019-01-24T11:00:27.920Z,-0.60
2019-01-24T11:02:56.563Z,-0.70
2019-01-24T11:05:25.111Z,-0.70
2019-01-24T11:07:53.600Z,-0.50
2019-01-24T11:10:22.234Z,-0.30
2019-01-24T11:12:50.766Z,-0.40
2019-01-24T11:15:21.769Z,-0.50
2019-01-24T11:17:50.314Z,-0.40
2019-01-24T11:20:19.915Z,-0.30
2019-01-24T11:22:49.496Z,-0.10
2019-01-24T11:25:23.215Z,-0.10
2019-01-24T11:27:52.932Z,0.20
2019-01-24T11:30:27.186Z,0.30
2019-01-24T11:32:56.064Z,0.40
2019-01-24T11:35:35.632Z,0.60
2019-01-24T11:38:04.371Z,0.20
2019-01-24T11:40:32.912Z,0.20
2019-01-24T11:43:01.570Z,0.30
2019-01-24T11:45:40.779Z,0.50
2019-01-24T11:48:09.249Z,0.40
2019-01-24T11:50:37.820Z,0.50
2019-01-24T11:53:06.359Z,0.30
2019-01-24T11:55:34.820Z,0.30
2019-01-24T11:58:03.574Z,0.50
2019-01-24T12:00:35.832Z,0.50
2019-01-24T12:03:05.237Z,0.40
2019-01-24T12:05:33.699Z,0.40
2019-01-24T12:08:02.160Z,0.30
2019-01-24T12:10:31.093Z,0.30
2019-01-24T12:12:59.579Z,0.50
2019-01-24T12:15:30.464Z,0.50
2019-01-24T12:17:59.073Z,0.60
2019-01-24T12:20:27.872Z,0.40
2019-01-24T12:22:56.585Z,0.30
2019-01-24T12:25:25.042Z,0.20
2019-01-24T12:27:53.631Z,0.50
2019-01-24T12:30:30.539Z,0.70
2019-01-24T12:32:59.748Z,0.70
2019-01-24T12:35:28.619Z,0.60
2019-01-24T12:37:57.383Z,0.70
2019-01-24T12:40:25.991Z,0.50
2019-01-24T12:42:54.457Z,0.50
2019-01-24T12:45:30.997Z,0.40
2019-01-24T12:47:59.705Z,0.10
2019-01-24T12:50:28.293Z,0.20
2019-01-24T12:52:56.750Z,0.10
2019-01-24T12:55:25.296Z,0.20
2019-01-24T12:57:53.906Z,0.60
2019-01-24T13:00:25.555Z,0.50
2019-01-24T13:02:54.017Z,0.70
2019-01-24T13:05:22.784Z,0.70
2019-01-24T13:07:51.223Z,0.70
2019-01-24T13:10:25.272Z,0.80
2019-01-24T13:12:53.819Z,0.40
2019-01-24T13:15:24.923Z,0.30
2019-01-24T13:17:53.559Z,0.40
2019-01-24T13:20:22.175Z,0.20
2019-01-24T13:22:50.773Z,0.50
2019-01-24T13:25:21.801Z,0.80
2019-01-24T13:27:50.810Z,0.80
2019-01-24T13:30:21.718Z,0.80
2019-01-24T13:32:50.190Z,0.60
2019-01-24T13:35:18.778Z,0.90
2019-01-24T13:37:48.513Z,0.80
2019-01-24T13:40:19.623Z,0.80
2019-01-24T13:43:32.678Z,0.70
2019-01-24T13:46:01.167Z,0.20
2019-01-24T13:48:29.635Z,0.30
2019-01-24T13:50:58.187Z,0.30
2019-01-24T13:53:26.767Z,0.20
2019-01-24T13:55:55.366Z,-0.20
2019-01-24T13:58:23.914Z,-0.40
2019-01-24T14:00:52.466Z,-0.40
2019-01-24T14:03:24.545Z,-0.40
2019-01-24T14:05:54.751Z,-0.50
2019-01-24T14:08:23.400Z,-0.40
2019-01-24T14:10:51.929Z,-0.60
2019-01-24T14:13:20.382Z,-0.40
2019-01-24T14:15:48.855Z,-0.50
2019-01-24T14:18:17.785Z,-0.50
2019-01-24T14:20:46.537Z,-0.40
2019-01-24T14:23:15.131Z,-0.40
2019-01-24T14:25:43.601Z,-0.50
2019-01-24T14:28:12.074Z,-0.40
2019-01-24T14:30:40.591Z,-0.50
2019-01-24T14:33:09.068Z,-0.40
2019-01-24T14:35:37.901Z,-0.40
2019-01-24T14:38:07.719Z,-0.40
2019-01-24T14:40:36.270Z,-0.50
2019-01-24T14:43:05.080Z,-0.50
2019-01-24T14:45:33.635Z,-0.50
2019-01-24T14:48:02.186Z,-0.40
2019-01-24T14:50:33.451Z,-0.50
2019-01-24T14:53:01.973Z,-0.50
2019-01-24T14:55:30.566Z,-0.60
2019-01-24T14:57:59.041Z,-0.70
2019-01-24T15:00:30.125Z,-0.80
2019-01-24T15:02:58.606Z,-0.80
2019-01-24T15:05:27.425Z,-0.90
2019-01-24T15:07:55.980Z,-0.90
2019-01-24T15:10:24.587Z,-1.00
2019-01-24T15:12:53.167Z,-1.00
2019-01-24T15:15:22.974Z,-1.00
2019-01-24T15:17:51.580Z,-1.00
2019-01-24T15:20:20.914Z,-1.10
2019-01-24T15:22:49.431Z,-1.10
2019-01-24T15:25:19.721Z,-1.10
2019-01-24T15:27:48.494Z,-1.20
2019-01-24T15:30:25.453Z,-1.20
2019-01-24T15:32:54.063Z,-1.30
2019-01-24T15:35:22.655Z,-1.30
2019-01-24T15:37:54.657Z,-1.30
2019-01-24T15:40:30.108Z,-1.40
2019-01-24T15:42:58.729Z,-1.50
2019-01-24T15:45:27.507Z,-1.50
2019-01-24T15:47:56.365Z,-1.50
2019-01-24T15:50:25.402Z,-1.50
2019-01-24T15:52:53.994Z,-1.60
2019-01-24T15:55:22.772Z,-1.60
2019-01-24T15:57:51.300Z,-1.70
2019-01-24T16:00:25.091Z,-1.70
2019-01-24T16:02:53.568Z,-1.80
2019-01-24T16:05:22.197Z,-1.80
2019-01-24T16:07:50.746Z,-1.80
2019-01-24T16:10:23.255Z,-1.80
2019-01-24T16:12:51.888Z,-1.80
2019-01-24T16:15:31.818Z,-1.80
2019-01-24T16:18:00.452Z,-1.80
2019-01-24T16:20:30.666Z,-1.80
2019-01-24T16:22:59.203Z,-1.80
2019-01-24T16:25:33.029Z,-1.80
2019-01-24T16:28:01.529Z,-1.80
2019-01-24T16:30:35.186Z,-1.90
2019-01-24T16:33:06.094Z,-2.00
2019-01-24T16:35:35.043Z,-2.00
2019-01-24T16:38:09.248Z,-2.00
2019-01-24T16:40:34.121Z,-2.10
2019-01-24T16:43:02.579Z,-2.10
2019-01-24T16:45:31.137Z,-2.10
2019-01-24T16:48:00.241Z,-2.10
2019-01-24T16:50:29.047Z,-2.10
2019-01-24T16:52:57.505Z,-2.10
2019-01-24T16:55:26.122Z,-2.20
2019-01-24T16:57:54.730Z,-2.10
2019-01-24T17:00:29.050Z,-2.20
2019-01-24T17:02:57.519Z,-2.20
2019-01-24T17:05:26.044Z,-2.30
2019-01-24T17:07:54.522Z,-2.30
2019-01-24T17:10:29.756Z,-2.30
2019-01-24T17:12:58.290Z,-2.30
2019-01-24T17:15:27.194Z,-2.30
2019-01-24T17:17:55.840Z,-2.30
2019-01-24T17:20:29.164Z,-2.30
2019-01-24T17:22:57.696Z,-2.20
2019-01-24T17:25:29.827Z,-2.20
2019-01-24T17:27:58.315Z,-2.30
2019-01-24T17:30:32.078Z,-2.30
2019-01-24T17:33:00.777Z,-2.30
2019-01-24T17:35:29.386Z,-2.30
2019-01-24T17:37:57.983Z,-2.30
2019-01-24T17:40:34.490Z,-2.30
2019-01-24T17:43:03.023Z,-2.40
2019-01-24T17:45:32.159Z,-2.40
2019-01-24T17:48:00.891Z,-2.40
2019-01-24T17:50:29.435Z,-2.40
2019-01-24T17:52:58.038Z,-2.30
2019-01-24T17:55:44.418Z,-2.30
2019-01-24T17:58:13.024Z,-2.30
2019-01-24T18:00:43.288Z,-2.40
2019-01-24T18:03:11.957Z,-2.30
2019-01-24T18:05:40.479Z,-2.40
2019-01-24T18:08:09.312Z,-2.40
2019-01-24T18:10:37.819Z,-2.40
2019-01-24T18:13:06.416Z,-2.40
2019-01-24T18:15:36.864Z,-2.50
2019-01-24T18:18:08.488Z,-2.50
2019-01-24T18:20:37.790Z,-2.40
2019-01-24T18:23:08.452Z,-2.40
2019-01-24T18:25:37.207Z,-2.40
2019-01-24T18:28:08.977Z,-2.50
2019-01-24T18:30:37.438Z,-2.60
2019-01-24T18:33:07.448Z,-2.60
2019-01-24T18:35:36.002Z,-2.60
2019-01-24T18:38:05.270Z,-2.60
2019-01-24T18:40:35.112Z,-2.70
2019-01-24T18:43:05.082Z,-2.70
2019-01-24T18:45:39.483Z,-2.60
2019-01-24T18:48:08.308Z,-2.60
2019-01-24T18:50:36.859Z,-2.60
2019-01-24T18:53:05.779Z,-2.60
2019-01-24T18:55:34.328Z,-2.60
2019-01-24T18:58:03.047Z,-2.60
2019-01-24T19:00:33.241Z,-2.70
2019-01-24T19:03:01.771Z,-2.60
2019-01-24T19:05:30.608Z,-2.60
2019-01-24T19:07:59.216Z,-2.60
2019-01-24T19:10:27.690Z,-2.60
2019-01-24T19:12:56.484Z,-2.70
2019-01-24T19:15:24.962Z,-2.60
2019-01-24T19:17:54.238Z,-2.60
2019-01-24T19:20:22.708Z,-2.70
2019-01-24T19:22:51.318Z,-2.70
2019-01-24T19:25:21.515Z,-2.70
2019-01-24T19:27:50.326Z,-2.70
2019-01-24T19:30:30.896Z,-2.70
2019-01-24T19:33:01.332Z,-2.70
2019-01-24T19:35:29.769Z,-2.70
2019-01-24T19:37:58.208Z,-2.70
2019-01-24T19:40:31.305Z,-2.70
2019-01-24T19:42:59.781Z,-2.70
2019-01-24T19:45:28.753Z,-2.70
2019-01-24T19:47:57.189Z,-2.70
2019-01-24T19:50:27.672Z,-2.70
2019-01-24T19:52:56.646Z,-2.70
2019-01-24T19:55:25.094Z,-2.80
2019-01-24T19:57:53.952Z,-2.70
2019-01-24T20:00:27.848Z,-2.80
2019-01-24T20:02:56.425Z,-2.80
2019-01-24T20:05:25.216Z,-2.80
2019-01-24T20:07:53.775Z,-2.80
2019-01-24T20:10:24.250Z,-2.80
2019-01-24T20:12:52.764Z,-2.80
2019-01-24T20:15:23.785Z,-2.70
2019-01-24T20:17:52.331Z,-2.80
2019-01-24T20:20:20.833Z,-2.80
2019-01-24T20:22:49.504Z,-2.80
2019-01-24T20:25:26.380Z,-2.80
2019-01-24T20:27:55.462Z,-2.90
2019-01-24T20:30:26.312Z,-2.80
2019-01-24T20:32:55.008Z,-2.90
2019-01-24T20:35:34.921Z,-2.90
2019-01-24T20:38:03.735Z,-2.90
2019-01-24T20:40:32.225Z,-2.90
2019-01-24T20:43:00.651Z,-2.80
2019-01-24T20:45:29.505Z,-2.80
2019-01-24T20:47:58.169Z,-2.90
2019-01-24T20:50:26.598Z,-3.00
2019-01-24T20:52:55.031Z,-3.00
2019-01-24T20:55:23.461Z,-3.00
2019-01-24T20:57:51.894Z,-3.00
2019-01-24T21:00:23.162Z,-3.10
2019-01-24T21:02:52.132Z,-3.10
2019-01-24T21:05:22.706Z,-3.10
2019-01-24T21:07:51.447Z,-3.00
2019-01-24T21:10:30.223Z,-3.00
2019-01-24T21:12:58.678Z,-3.00
2019-01-24T21:15:27.112Z,-3.00
2019-01-24T21:17:55.694Z,-3.00
2019-01-24T21:20:26.827Z,-3.00
2019-01-24T21:22:55.342Z,-3.10
2019-01-24T21:25:24.508Z,-3.10
2019-01-24T21:27:52.949Z,-3.10
2019-01-24T21:30:24.380Z,-3.10
2019-01-24T21:32:52.962Z,-3.10
2019-01-24T21:35:21.605Z,-3.20
2019-01-24T21:37:50.435Z,-3.10
2019-01-24T21:40:24.340Z,-3.10
2019-01-24T21:42:52.782Z,-3.10
2019-01-24T21:45:24.247Z,-3.10
2019-01-24T21:47:52.752Z,-3.10
2019-01-24T21:50:23.692Z,-3.00
2019-01-24T21:52:52.196Z,-3.00
2019-01-24T21:55:20.759Z,-3.10
2019-01-24T21:57:49.565Z,-3.10
2019-01-24T22:00:20.632Z,-3.10
2019-01-24T22:02:49.405Z,-3.10
2019-01-24T22:05:18.563Z,-3.10
2019-01-24T22:07:47.139Z,-3.10
2019-01-24T22:10:23.368Z,-3.10
2019-01-24T22:12:51.875Z,-3.10
2019-01-24T22:15:23.432Z,-3.10
2019-01-24T22:17:51.943Z,-3.10
2019-01-24T22:20:20.511Z,-3.10
2019-01-24T22:22:48.939Z,-3.10
2019-01-24T22:25:19.607Z,-3.20
2019-01-24T22:27:48.407Z,-3.20
2019-01-24T22:30:27.426Z,-3.20
2019-01-24T22:32:55.852Z,-3.20
2019-01-24T22:35:24.279Z,-3.20
2019-01-24T22:37:52.778Z,-3.30
2019-01-24T22:40:21.282Z,-3.30
2019-01-24T22:42:49.723Z,-3.30
2019-01-24T22:45:20.897Z,-3.30
2019-01-24T22:47:49.384Z,-3.30
2019-01-24T22:50:17.914Z,-3.30
2019-01-24T22:52:47.283Z,-3.40
2019-01-24T22:55:15.855Z,-3.30
2019-01-24T22:57:45.039Z,-3.40
2019-01-24T23:00:43.510Z,-3.30
2019-01-24T23:03:12.420Z,-3.30
2019-01-24T23:05:40.844Z,-3.40
2019-01-24T23:08:09.261Z,-3.40
2019-01-24T23:10:37.712Z,-3.40
2019-01-24T23:13:06.265Z,-3.40
2019-01-24T23:15:34.960Z,-3.40
2019-01-24T23:18:03.447Z,-3.40
2019-01-24T23:20:31.881Z,-3.40
2019-01-24T23:23:00.294Z,-3.50
2019-01-24T23:25:28.727Z,-3.40
2019-01-24T23:27:57.154Z,-3.50
2019-01-24T23:30:25.583Z,-3.50
2019-01-24T23:32:54.013Z,-3.50
2019-01-24T23:35:22.450Z,-3.50
2019-01-24T23:37:52.488Z,-3.50
2019-01-24T23:40:21.104Z,-3.40
2019-01-24T23:42:49.601Z,-3.40
2019-01-24T23:45:18.016Z,-3.40
2019-01-24T23:47:46.449Z,-3.40
2019-01-24T23:50:14.879Z,-3.50
2019-01-24T23:52:43.299Z,-3.40
2019-01-24T23:55:11.984Z,-3.40
2019-01-24T23:57:40.422Z,-3.50
